Spring Lake, Minnesota
Current Conditions -  °F | °C
As of 2:53 PM on Tuesday 27 Jan 2015 (Local Time) from KFOZ Reporting Station
Clear Clear  
Wind Chill: 24°   Ceiling: Unl
Heat Index: 30°   Visibility: 10mi
Dew Point: 25°   Wind: 6mph
Humidity: 80%   Direction: 170°S
Pressure: 30.05"   Gusts: NA
Location:  47.64°N, 93.87°W
Report Text: KFOZ 272053Z AUTO 17005KT 10SM CLR M01/M04 A3005 RMK AO2 TSNO
Loading
Personal Weather Stations






























Interactive Weather Map New forecast layout! Learn more

10-Day Weather Forecast

Advertisements
Track Severe Weather on mobile